Time;durP1;ratioP1;P1;durP2;ratioP2;P2;SDS_P1;SDS_P2;PMS_P1;PMS_P2;Temp;Humidity;BMP_temperature;BMP_pressure;BME280_temperature;BME280_humidity;BME280_pressure;Samples;Min_cycle;Max_cycle;Signal;HPM_P1;HPM_P2
2023/04/02 00:02:19;;;;;;;13.15;6.97;;;;;;;;;;5007609;28;20529;-70
2023/04/02 00:05:18;;;;;;;15.68;7.13;;;;;;;;;;5005304;28;20468;-70
2023/04/02 00:07:51;;;;;;;14.85;5.32;;;;;;;;;;4991794;28;20128;-70
2023/04/02 00:10:29;;;;;;;27.55;6.40;;;;;;;;;;5006933;28;20050;-70
2023/04/02 00:13:23;;;;;;;19.35;6.88;;;;;;;;;;5007219;28;20506;-70
2023/04/02 00:15:49;;;;;;;;;;;;;;;;;;4989778;28;20064;-70
2023/04/02 00:18:20;;;;;;;24.75;6.40;;;;;;;;;;5004946;28;19913;-70
2023/04/02 00:20:51;;;;;;;24.35;8.13;;;;;;;;;;5007020;28;20045;-70
2023/04/02 00:23:18;;;;;;;14.88;6.55;;;;;;;;;;5005876;28;20457;-70
2023/04/02 00:25:45;;;;;;;43.22;11.55;;;;;;;;;;5005528;28;20405;-70
2023/04/02 00:28:15;;;;;;;22.58;7.35;;;;;;;;;;4994490;28;20023;-70
2023/04/02 00:31:09;;;;;;;21.48;7.35;;;;;;;;;;4986508;28;20467;-70
2023/04/02 00:33:34;;;;;;;26.95;9.07;;;;;;;;;;4981874;28;20569;-70
2023/04/02 00:36:06;;;;;;;21.33;9.82;;;;;;;;;;4986718;28;20036;-70
2023/04/02 00:38:33;;;;;;;15.38;5.07;;;;;;;;;;4986329;28;20533;-70
2023/04/02 00:41:02;;;;;;;17.17;7.05;;;;;;;;;;4986898;28;20030;-70
2023/04/02 00:43:34;;;;;;;13.95;6.70;;;;;;;;;;4986539;28;20026;-70
2023/04/02 00:46:02;;;;;;;33.40;9.40;;;;;;;;;;4969940;28;20030;-70
2023/04/02 00:48:30;;;;;;;34.67;9.85;;;;;;;;;;4987002;28;20042;-70
2023/04/02 00:50:59;;;;;;;19.23;8.90;;;;;;;;;;4985568;28;20047;-70
2023/04/02 00:53:27;;;;;;;30.80;9.68;;;;;;;;;;4986456;28;20117;-70
2023/04/02 00:55:54;;;;;;;40.92;11.10;;;;;;;;;;4988050;28;20077;-70
2023/04/02 00:58:26;;;;;;;21.35;9.27;;;;;;;;;;4996779;28;20078;-70
2023/04/02 01:00:51;;;;;;;63.53;17.02;;;;;;;;;;5007030;28;20029;-70
2023/04/02 01:03:17;;;;;;;26.83;10.38;;;;;;;;;;5005112;28;20034;-70
2023/04/02 01:05:45;;;;;;;25.67;9.52;;;;;;;;;;5004894;28;20037;-70
2023/04/02 01:08:24;;;;;;;20.52;8.48;;;;;;;;;;5003443;28;20424;-70
2023/04/02 01:11:11;;;;;;;64.35;14.57;;;;;;;;;;5004563;28;20041;-70
2023/04/02 01:13:43;;;;;;;27.08;8.95;;;;;;;;;;4998158;28;20038;-70
2023/04/02 01:16:12;;;;;;;23.85;8.55;;;;;;;;;;5013238;28;20578;-70
2023/04/02 01:18:52;;;;;;;11.27;5.75;;;;;;;;;;5023085;28;20089;-70
2023/04/02 01:21:36;;;;;;;24.45;8.73;;;;;;;;;;5017525;28;20061;-70
2023/04/02 01:24:05;;;;;;;45.83;11.77;;;;;;;;;;5015546;28;20030;-70
2023/04/02 01:26:36;;;;;;;15.50;7.75;;;;;;;;;;5005248;28;20034;-70
2023/04/02 01:29:09;;;;;;;19.73;6.70;;;;;;;;;;5006167;28;20109;-70
2023/04/02 01:31:36;;;;;;;14.38;6.45;;;;;;;;;;5023677;28;20580;-70
2023/04/02 01:34:06;;;;;;;19.08;6.10;;;;;;;;;;5025677;28;20021;-70
2023/04/02 01:36:59;;;;;;;15.73;7.53;;;;;;;;;;5021097;28;20058;-70
2023/04/02 01:39:50;;;;;;;33.97;9.05;;;;;;;;;;4996892;28;20038;-70
2023/04/02 01:42:32;;;;;;;11.77;3.75;;;;;;;;;;5000021;28;20092;-70
2023/04/02 01:45:15;;;;;;;18.02;6.60;;;;;;;;;;4995379;28;20584;-70
2023/04/02 01:47:42;;;;;;;13.95;6.00;;;;;;;;;;5001579;28;20489;-70
2023/04/02 01:50:32;;;;;;;19.63;6.32;;;;;;;;;;5004424;28;20041;-70
2023/04/02 01:53:03;;;;;;;16.23;5.82;;;;;;;;;;5004868;28;20029;-70
2023/04/02 01:55:37;;;;;;;16.77;5.68;;;;;;;;;;5002415;28;20405;-70
2023/04/02 01:58:03;;;;;;;9.82;4.35;;;;;;;;;;5006027;28;20029;-70
2023/04/02 02:00:31;;;;;;;13.15;5.05;;;;;;;;;;5005777;28;20037;-70
2023/04/02 02:02:59;;;;;;;37.42;10.02;;;;;;;;;;5005834;28;20041;-70
2023/04/02 02:05:25;;;;;;;25.08;6.65;;;;;;;;;;5008940;28;20041;-70
2023/04/02 02:07:51;;;;;;;51.58;11.80;;;;;;;;;;5024639;28;20037;-70
2023/04/02 02:10:24;;;;;;;8.90;4.32;;;;;;;;;;5022149;28;20046;-70
2023/04/02 02:12:50;;;;;;;10.80;3.38;;;;;;;;;;5025704;28;20029;-70
2023/04/02 02:15:18;;;;;;;8.88;4.65;;;;;;;;;;5007944;28;20053;-70
2023/04/02 02:17:43;;;;;;;19.60;5.35;;;;;;;;;;5003489;28;20041;-70
2023/04/02 02:20:11;;;;;;;13.75;5.93;;;;;;;;;;4998441;28;20026;-69
2023/04/02 02:22:41;;;;;;;24.77;7.28;;;;;;;;;;4988024;28;20092;-70
2023/04/02 02:25:20;;;;;;;6.38;3.35;;;;;;;;;;4994072;28;20400;-70
2023/04/02 02:27:59;;;;;;;13.05;5.38;;;;;;;;;;5015177;28;20044;-70
2023/04/02 02:30:52;;;;;;;21.35;6.65;;;;;;;;;;5022780;28;20124;-70
2023/04/02 02:33:40;;;;;;;29.50;9.30;;;;;;;;;;5024282;28;20582;-70
2023/04/02 02:36:38;;;;;;;23.42;6.13;;;;;;;;;;5023481;28;20571;-70
2023/04/02 02:39:15;;;;;;;21.65;7.32;;;;;;;;;;5008921;28;20075;-70
2023/04/02 02:41:43;;;;;;;16.30;7.22;;;;;;;;;;5004660;28;20041;-70
2023/04/02 02:44:09;;;;;;;9.35;4.93;;;;;;;;;;5004271;28;20034;-70
2023/04/02 02:46:38;;;;;;;11.68;5.40;;;;;;;;;;5003315;28;20038;-70
2023/04/02 02:49:05;;;;;;;27.63;7.43;;;;;;;;;;5005347;28;20038;-70
2023/04/02 02:52:10;;;;;;;11.52;5.32;;;;;;;;;;5004273;28;20611;-70
2023/04/02 02:54:39;;;;;;;8.13;3.60;;;;;;;;;;5001150;28;20049;-70
2023/04/02 02:57:09;;;;;;;19.23;6.45;;;;;;;;;;5002932;28;20042;-70
2023/04/02 02:59:35;;;;;;;15.13;5.22;;;;;;;;;;5004558;28;20030;-70
2023/04/02 03:02:01;;;;;;;6.57;3.35;;;;;;;;;;5004260;28;20034;-70
2023/04/02 03:04:29;;;;;;;8.98;4.72;;;;;;;;;;5003706;28;20029;-70
2023/04/02 03:06:56;;;;;;;19.95;6.30;;;;;;;;;;5004528;28;20022;-70
2023/04/02 03:09:51;;;;;;;13.50;6.68;;;;;;;;;;5004121;28;20867;-70
2023/04/02 03:12:53;;;;;;;18.52;6.78;;;;;;;;;;5002302;28;20120;-70
2023/04/02 03:15:24;;;;;;;10.45;4.32;;;;;;;;;;5002872;28;20065;-70
2023/04/02 03:17:52;;;;;;;13.68;5.38;;;;;;;;;;5006497;28;20429;-70
2023/04/02 03:20:32;;;;;;;12.05;5.00;;;;;;;;;;5012972;28;20566;-70
2023/04/02 03:23:07;;;;;;;10.02;4.15;;;;;;;;;;5023884;28;20139;-70
2023/04/02 03:25:47;;;;;;;5.53;3.30;;;;;;;;;;5016713;28;20030;-70
2023/04/02 03:28:20;;;;;;;13.40;4.80;;;;;;;;;;5001405;28;20037;-70
2023/04/02 03:31:02;;;;;;;9.30;4.93;;;;;;;;;;5019644;28;20053;-70
2023/04/02 03:33:36;;;;;;;19.63;7.13;;;;;;;;;;5019004;28;20034;-70
2023/04/02 03:36:09;;;;;;;22.02;7.35;;;;;;;;;;4999098;28;20033;-70
2023/04/02 03:38:43;;;;;;;13.35;7.15;;;;;;;;;;5005290;28;20095;-70
2023/04/02 03:41:26;;;;;;;;;;;;;;;;;;5024609;28;20030;-70
2023/04/02 03:43:57;;;;;;;10.70;5.22;;;;;;;;;;5007864;28;19914;-70
2023/04/02 03:46:30;;;;;;;13.70;6.00;;;;;;;;;;5011239;28;20030;-70
2023/04/02 03:49:04;;;;;;;11.38;5.45;;;;;;;;;;5008139;28;20018;-70
2023/04/02 03:51:35;;;;;;;14.60;6.28;;;;;;;;;;5003497;28;20041;-70
2023/04/02 03:54:01;;;;;;;13.10;6.35;;;;;;;;;;5014657;28;20041;-70
2023/04/02 03:56:38;;;;;;;19.30;7.88;;;;;;;;;;5007467;28;20132;-70
2023/04/02 03:59:30;;;;;;;12.60;5.68;;;;;;;;;;5007458;28;20088;-70
2023/04/02 04:02:02;;;;;;;12.50;5.53;;;;;;;;;;5006479;28;20468;-70
2023/04/02 04:04:30;;;;;;;13.52;5.85;;;;;;;;;;5011996;28;20096;-70
2023/04/02 04:06:58;;;;;;;18.63;7.28;;;;;;;;;;5007439;28;20076;-70
2023/04/02 04:09:37;;;;;;;14.48;5.53;;;;;;;;;;5006863;28;20046;-71
2023/04/02 04:12:34;;;;;;;20.88;8.50;;;;;;;;;;5006219;28;20117;-70
2023/04/02 04:15:15;;;;;;;28.30;9.70;;;;;;;;;;4987355;28;20572;-70
2023/04/02 04:17:40;;;;;;;28.17;10.60;;;;;;;;;;5001315;28;20041;-70
2023/04/02 04:20:16;;;;;;;25.00;8.63;;;;;;;;;;5005318;28;20030;-70
2023/04/02 04:22:42;;;;;;;22.63;7.78;;;;;;;;;;5002191;28;20038;-70
2023/04/02 04:25:20;;;;;;;9.48;5.20;;;;;;;;;;4999209;28;20092;-70
2023/04/02 04:27:54;;;;;;;15.15;6.82;;;;;;;;;;5022990;28;20064;-70
2023/04/02 04:30:29;;;;;;;12.60;6.40;;;;;;;;;;5020894;28;20092;-70
2023/04/02 04:33:00;;;;;;;14.13;6.85;;;;;;;;;;5002994;28;20120;-70
2023/04/02 04:35:36;;;;;;;34.45;9.32;;;;;;;;;;5007899;28;20044;-70
2023/04/02 04:38:20;;;;;;;17.00;8.35;;;;;;;;;;5006158;28;20109;-70
2023/04/02 04:40:55;;;;;;;13.55;6.43;;;;;;;;;;5006294;28;20525;-70
2023/04/02 04:43:38;;;;;;;18.05;6.15;;;;;;;;;;5006219;28;20057;-70
2023/04/02 04:46:29;;;;;;;13.20;7.22;;;;;;;;;;5006894;28;20017;-71
2023/04/02 04:49:00;;;;;;;14.68;6.75;;;;;;;;;;5003361;28;20057;-70
2023/04/02 04:51:34;;;;;;;18.33;7.93;;;;;;;;;;5013016;28;20141;-70
2023/04/02 04:54:00;;;;;;;40.97;11.57;;;;;;;;;;5005899;28;20693;-70
2023/04/02 04:56:28;;;;;;;28.08;8.77;;;;;;;;;;5007394;28;20080;-70
2023/04/02 04:59:22;;;;;;;20.98;8.63;;;;;;;;;;4986690;28;20034;-70
2023/04/02 05:02:06;;;;;;;17.92;8.00;;;;;;;;;;4984984;28;20085;-70
2023/04/02 05:04:37;;;;;;;16.30;6.68;;;;;;;;;;4996497;28;20040;-71
2023/04/02 05:07:19;;;;;;;35.45;11.45;;;;;;;;;;5006897;28;20117;-71
2023/04/02 05:09:54;;;;;;;10.05;5.78;;;;;;;;;;5008162;28;20046;-70
2023/04/02 05:12:57;;;;;;;44.50;12.55;;;;;;;;;;5006097;28;20537;-70
2023/04/02 05:15:28;;;;;;;44.63;13.95;;;;;;;;;;5003979;28;20030;-70
2023/04/02 05:18:07;;;;;;;28.63;11.50;;;;;;;;;;5005330;28;20045;-70
2023/04/02 05:20:39;;;;;;;35.33;11.90;;;;;;;;;;5015723;28;20038;-70
2023/04/02 05:23:14;;;;;;;23.63;8.17;;;;;;;;;;5006181;28;20038;-70
2023/04/02 05:25:53;;;;;;;57.67;16.83;;;;;;;;;;5003996;28;20038;-70
2023/04/02 05:28:28;;;;;;;37.53;13.40;;;;;;;;;;5004752;28;20062;-71
2023/04/02 05:31:11;;;;;;;46.53;14.40;;;;;;;;;;5006318;28;20466;-70
2023/04/02 05:33:37;;;;;;;48.15;12.88;;;;;;;;;;5005273;28;20037;-70
2023/04/02 05:36:07;;;;;;;50.72;15.00;;;;;;;;;;5004785;28;20104;-70
2023/04/02 05:38:36;;;;;;;49.65;14.88;;;;;;;;;;5004261;28;20029;-71
2023/04/02 05:41:03;;;;;;;61.28;17.67;;;;;;;;;;5010374;28;20022;-70
2023/04/02 05:43:32;;;;;;;51.25;13.85;;;;;;;;;;5003287;28;20040;-70
2023/04/02 05:46:02;;;;;;;70.10;18.55;;;;;;;;;;5006084;28;20472;-70
2023/04/02 05:48:36;;;;;;;62.85;16.92;;;;;;;;;;5004532;28;20033;-70
2023/04/02 05:51:04;;;;;;;76.47;18.70;;;;;;;;;;5002537;28;20112;-70
2023/04/02 05:53:35;;;;;;;62.65;16.20;;;;;;;;;;4996328;28;20105;-70
2023/04/02 05:56:43;;;;;;;49.88;15.23;;;;;;;;;;4997665;28;20058;-70
2023/04/02 05:59:23;;;;;;;70.28;18.65;;;;;;;;;;4996214;28;20113;-70
2023/04/02 06:02:12;;;;;;;58.90;17.10;;;;;;;;;;5003620;28;20038;-70
2023/04/02 06:04:51;;;;;;;46.20;14.80;;;;;;;;;;4998048;28;20044;-70
2023/04/02 06:07:21;;;;;;;61.92;17.38;;;;;;;;;;4984749;28;20044;-70
2023/04/02 06:09:52;;;;;;;68.88;18.35;;;;;;;;;;4985939;28;20129;-70
2023/04/02 06:12:30;;;;;;;61.40;17.67;;;;;;;;;;4984544;28;20049;-70
2023/04/02 06:14:56;;;;;;;65.18;17.52;;;;;;;;;;4990388;28;20500;-70
2023/04/02 06:17:22;;;;;;;72.75;19.40;;;;;;;;;;5018459;28;20121;-70
2023/04/02 06:19:48;;;;;;;71.25;20.20;;;;;;;;;;5017101;28;20504;-70
2023/04/02 06:22:36;;;;;;;68.05;18.23;;;;;;;;;;5004686;28;20309;-70
2023/04/02 06:25:14;;;;;;;57.85;15.60;;;;;;;;;;5002169;28;20072;-70
2023/04/02 06:27:41;;;;;;;52.63;14.68;;;;;;;;;;5000599;28;20594;-70
2023/04/02 06:30:16;;;;;;;54.28;15.90;;;;;;;;;;5002493;28;20038;-71
2023/04/02 06:32:41;;;;;;;70.75;17.20;;;;;;;;;;5003147;28;20117;-70
2023/04/02 06:35:12;;;;;;;71.15;18.23;;;;;;;;;;5001020;28;20038;-70
2023/04/02 06:37:42;;;;;;;53.85;16.23;;;;;;;;;;4997276;28;20061;-70
2023/04/02 06:40:30;;;;;;;69.40;17.45;;;;;;;;;;4999921;28;20014;-69
2023/04/02 06:42:59;;;;;;;74.22;19.33;;;;;;;;;;5003884;28;20036;-69
2023/04/02 06:45:32;;;;;;;87.45;21.77;;;;;;;;;;5003149;28;20108;-70
2023/04/02 06:48:01;;;;;;;66.88;16.45;;;;;;;;;;5004447;28;20528;-70
2023/04/02 06:50:42;;;;;;;55.90;15.57;;;;;;;;;;5004048;28;20794;-70
2023/04/02 06:53:20;;;;;;;77.20;18.50;;;;;;;;;;5003852;28;20048;-70
2023/04/02 06:55:55;;;;;;;83.15;20.63;;;;;;;;;;5003580;28;20034;-70
2023/04/02 06:58:20;;;;;;;70.15;20.90;;;;;;;;;;5004092;28;20096;-70
2023/04/02 07:00:47;;;;;;;60.05;17.98;;;;;;;;;;5005115;28;20509;-70
2023/04/02 07:03:28;;;;;;;43.55;14.55;;;;;;;;;;5001917;28;20084;-70
2023/04/02 07:05:55;;;;;;;50.10;15.27;;;;;;;;;;5007042;28;20042;-70
2023/04/02 07:08:20;;;;;;;58.25;16.98;;;;;;;;;;5004042;28;20125;-70
2023/04/02 07:10:46;;;;;;;68.22;19.33;;;;;;;;;;5003971;28;20128;-70
2023/04/02 07:13:17;;;;;;;81.07;20.10;;;;;;;;;;5003933;28;20022;-70
2023/04/02 07:15:49;;;;;;;67.70;16.83;;;;;;;;;;5002242;28;20122;-70
2023/04/02 07:18:21;;;;;;;57.30;15.75;;;;;;;;;;5005709;28;20066;-70
2023/04/02 07:20:46;;;;;;;60.78;17.52;;;;;;;;;;5007399;28;20398;-70
2023/04/02 07:23:12;;;;;;;75.22;18.02;;;;;;;;;;5008034;28;20033;-70
2023/04/02 07:25:38;;;;;;;55.25;16.45;;;;;;;;;;5006666;28;20511;-70
2023/04/02 07:28:03;;;;;;;67.70;18.20;;;;;;;;;;5007655;28;20149;-70
2023/04/02 07:30:29;;;;;;;63.70;16.95;;;;;;;;;;5004838;28;20037;-70
2023/04/02 07:32:54;;;;;;;73.50;19.70;;;;;;;;;;5004961;28;20033;-70
2023/04/02 07:35:19;;;;;;;76.97;18.40;;;;;;;;;;5003558;28;20048;-70
2023/04/02 07:37:45;;;;;;;68.65;19.50;;;;;;;;;;5006920;28;20036;-70
2023/04/02 07:40:20;;;;;;;57.92;16.88;;;;;;;;;;5008378;28;20024;-70
2023/04/02 07:42:46;;;;;;;56.60;16.83;;;;;;;;;;5008441;28;20053;-70
2023/04/02 07:45:12;;;;;;;60.65;17.17;;;;;;;;;;5007849;28;20030;-70
2023/04/02 07:47:38;;;;;;;76.85;20.63;;;;;;;;;;5008003;28;20041;-70
2023/04/02 07:50:05;;;;;;;76.20;20.92;;;;;;;;;;5006811;28;20064;-70
2023/04/02 07:52:30;;;;;;;66.57;20.42;;;;;;;;;;5006337;28;20057;-69
2023/04/02 07:54:56;;;;;;;77.95;21.20;;;;;;;;;;5004257;28;20544;-70
2023/04/02 07:57:21;;;;;;;65.22;18.58;;;;;;;;;;5008919;28;20112;-69
2023/04/02 07:59:47;;;;;;;91.90;21.75;;;;;;;;;;5008877;28;20448;-69
2023/04/02 08:02:20;;;;;;;97.15;23.35;;;;;;;;;;5007024;28;20540;-69
2023/04/02 08:04:46;;;;;;;48.85;16.33;;;;;;;;;;5003925;28;20045;-70
2023/04/02 08:07:11;;;;;;;71.55;19.42;;;;;;;;;;5007227;28;20091;-70
2023/04/02 08:09:37;;;;;;;58.05;17.75;;;;;;;;;;5006247;28;20053;-70
2023/04/02 08:12:02;;;;;;;65.05;19.08;;;;;;;;;;5004285;28;20511;-70
2023/04/02 08:14:27;;;;;;;60.40;18.77;;;;;;;;;;5000660;28;20031;-69
2023/04/02 08:16:54;;;;;;;54.95;17.77;;;;;;;;;;5007123;28;20034;-70
2023/04/02 08:19:20;;;;;;;36.85;13.70;;;;;;;;;;5005116;28;20033;-70
2023/04/02 08:21:50;;;;;;;43.92;15.55;;;;;;;;;;5005928;28;20553;-69
2023/04/02 08:24:18;;;;;;;43.40;14.43;;;;;;;;;;4996275;28;20065;-70
2023/04/02 08:26:44;;;;;;;47.53;17.88;;;;;;;;;;4996751;28;20034;-69
2023/04/02 08:29:09;;;;;;;36.55;13.77;;;;;;;;;;5001912;28;20038;-70
2023/04/02 08:31:35;;;;;;;25.95;10.65;;;;;;;;;;5001447;28;20057;-70
2023/04/02 08:34:00;;;;;;;48.55;14.43;;;;;;;;;;4996020;28;20145;-70
2023/04/02 08:36:29;;;;;;;34.42;12.98;;;;;;;;;;5002803;28;20073;-70
2023/04/02 08:38:55;;;;;;;25.98;10.55;;;;;;;;;;5003617;28;20057;-69
2023/04/02 08:41:26;;;;;;;34.88;13.35;;;;;;;;;;5004832;28;20054;-69
2023/04/02 08:44:10;;;;;;;28.45;10.77;;;;;;;;;;5001341;28;20056;-69
2023/04/02 08:46:51;;;;;;;31.75;11.90;;;;;;;;;;4997411;28;20112;-69
2023/04/02 08:49:28;;;;;;;29.75;13.13;;;;;;;;;;4995231;28;20045;-69
2023/04/02 08:51:54;;;;;;;25.05;10.65;;;;;;;;;;5000112;28;20489;-69
2023/04/02 08:54:38;;;;;;;27.55;11.57;;;;;;;;;;4996933;28;20092;-70
2023/04/02 08:57:14;;;;;;;26.92;10.68;;;;;;;;;;5004065;28;20026;-69
2023/04/02 08:59:42;;;;;;;21.73;8.93;;;;;;;;;;5005753;28;20034;-69
2023/04/02 09:02:19;;;;;;;28.25;12.00;;;;;;;;;;5004780;28;20033;-69
2023/04/02 09:04:44;;;;;;;23.75;11.43;;;;;;;;;;5000686;28;20121;-69
2023/04/02 09:07:15;;;;;;;26.33;10.98;;;;;;;;;;4999760;28;20094;-69
2023/04/02 09:09:41;;;;;;;29.30;12.20;;;;;;;;;;4997313;28;20045;-70
2023/04/02 09:12:35;;;;;;;29.23;12.60;;;;;;;;;;4998868;28;20073;-69
2023/04/02 09:15:06;;;;;;;26.33;10.30;;;;;;;;;;4999924;28;20038;-70
2023/04/02 09:17:32;;;;;;;35.67;14.18;;;;;;;;;;5012763;28;20803;-70
2023/04/02 09:20:16;;;;;;;28.83;11.55;;;;;;;;;;5009951;28;20034;-69
2023/04/02 09:22:47;;;;;;;18.90;8.55;;;;;;;;;;5013566;28;20148;-70
2023/04/02 09:25:18;;;;;;;30.08;11.38;;;;;;;;;;5005186;28;20022;-70
2023/04/02 09:27:47;;;;;;;29.10;12.30;;;;;;;;;;5011615;28;20037;-70
2023/04/02 09:30:41;;;;;;;29.95;12.60;;;;;;;;;;5002352;28;20034;-70
2023/04/02 09:33:07;;;;;;;28.10;11.95;;;;;;;;;;5002382;28;20026;-70
2023/04/02 09:35:56;;;;;;;31.17;12.00;;;;;;;;;;5001248;28;20045;-69
2023/04/02 09:38:30;;;;;;;30.60;12.45;;;;;;;;;;4999676;28;20205;-70
2023/04/02 09:41:17;;;;;;;35.10;12.90;;;;;;;;;;5001075;28;20557;-70
2023/04/02 09:43:42;;;;;;;41.47;14.93;;;;;;;;;;4999252;28;20034;-70
2023/04/02 09:46:24;;;;;;;32.22;12.30;;;;;;;;;;5004990;28;20387;-70
2023/04/02 09:48:57;;;;;;;30.88;13.07;;;;;;;;;;5004893;28;20042;-70
2023/04/02 09:51:33;;;;;;;36.63;14.43;;;;;;;;;;5003620;28;20037;-70
2023/04/02 09:54:02;;;;;;;31.92;12.10;;;;;;;;;;5003809;28;20026;-69
2023/04/02 09:56:35;;;;;;;32.65;11.68;;;;;;;;;;5002206;28;20053;-70
2023/04/02 09:59:12;;;;;;;30.50;13.10;;;;;;;;;;5004518;28;20520;-70
2023/04/02 10:01:40;;;;;;;25.48;10.93;;;;;;;;;;5003952;28;20041;-69
2023/04/02 10:04:36;;;;;;;28.83;9.93;;;;;;;;;;5005221;28;20018;-69
2023/04/02 10:07:03;;;;;;;21.90;8.98;;;;;;;;;;4989235;28;20045;-70
2023/04/02 10:09:36;;;;;;;23.08;9.48;;;;;;;;;;4990930;28;20042;-70
2023/04/02 10:12:06;;;;;;;22.65;9.82;;;;;;;;;;4999449;28;20061;-70
2023/04/02 10:14:38;;;;;;;25.05;11.95;;;;;;;;;;5003857;28;20036;-70
2023/04/02 10:17:10;;;;;;;22.70;9.20;;;;;;;;;;5000064;28;20577;-70
2023/04/02 10:19:40;;;;;;;20.00;8.07;;;;;;;;;;5003341;28;20356;-70
2023/04/02 10:22:14;;;;;;;23.05;7.75;;;;;;;;;;5002217;28;20409;-70
2023/04/02 10:24:39;;;;;;;18.35;8.02;;;;;;;;;;5004335;28;20521;-70
2023/04/02 10:27:58;;;;;;;25.10;10.43;;;;;;;;;;4999535;28;20058;-70
2023/04/02 10:30:52;;;;;;;30.33;11.88;;;;;;;;;;4943937;28;20050;-70
2023/04/02 10:33:26;;;;;;;29.63;12.90;;;;;;;;;;4995615;28;20048;-70
2023/04/02 10:36:00;;;;;;;31.67;13.18;;;;;;;;;;4995998;28;20030;-70
2023/04/02 10:38:34;;;;;;;20.02;8.52;;;;;;;;;;4993400;28;20040;-69
2023/04/02 10:41:15;;;;;;;21.65;9.82;;;;;;;;;;5002288;28;20046;-69
2023/04/02 10:44:03;;;;;;;18.75;8.27;;;;;;;;;;5005813;28;20060;-69
2023/04/02 10:46:35;;;;;;;26.00;11.93;;;;;;;;;;5005535;28;20026;-69
2023/04/02 10:49:23;;;;;;;20.15;9.50;;;;;;;;;;4997793;28;20497;-70
2023/04/02 10:52:02;;;;;;;20.48;9.45;;;;;;;;;;5005465;28;20417;-70
2023/04/02 10:54:49;;;;;;;19.85;8.05;;;;;;;;;;5007345;28;20099;-69
2023/04/02 10:57:21;;;;;;;19.55;9.07;;;;;;;;;;5007133;28;20038;-69
2023/04/02 11:00:16;;;;;;;24.95;11.10;;;;;;;;;;5007728;28;20038;-69
2023/04/02 11:03:01;;;;;;;21.55;10.10;;;;;;;;;;4999304;28;20476;-69
2023/04/02 11:05:45;;;;;;;21.27;10.45;;;;;;;;;;5005499;28;20786;-70
2023/04/02 11:08:40;;;;;;;23.33;10.35;;;;;;;;;;5008100;28;20040;-69
2023/04/02 11:11:17;;;;;;;22.48;9.50;;;;;;;;;;5006210;28;20053;-70
2023/04/02 11:13:48;;;;;;;22.50;9.57;;;;;;;;;;5007910;28;20060;-69
2023/04/02 11:16:14;;;;;;;23.73;10.93;;;;;;;;;;5008531;28;20048;-69
2023/04/02 11:18:40;;;;;;;19.80;8.00;;;;;;;;;;5007721;28;20437;-70
2023/04/02 11:21:37;;;;;;;19.25;9.10;;;;;;;;;;5006287;28;20048;-69
2023/04/02 11:24:02;;;;;;;20.02;9.90;;;;;;;;;;5007708;28;20065;-69
2023/04/02 11:26:34;;;;;;;19.77;8.30;;;;;;;;;;5006357;28;20050;-69
2023/04/02 11:29:26;;;;;;;12.95;5.97;;;;;;;;;;5008700;28;20057;-70
2023/04/02 11:32:31;;;;;;;24.85;10.80;;;;;;;;;;4997794;28;20116;-69
2023/04/02 11:34:58;;;;;;;24.88;9.82;;;;;;;;;;4986267;28;20041;-69
2023/04/02 11:37:34;;;;;;;20.27;9.45;;;;;;;;;;4998688;28;20025;-69
2023/04/02 11:40:00;;;;;;;23.33;10.32;;;;;;;;;;5006941;28;20033;-69
2023/04/02 11:42:29;;;;;;;21.45;10.60;;;;;;;;;;5006297;28;20034;-70
2023/04/02 11:44:58;;;;;;;20.05;8.38;;;;;;;;;;5003388;28;20050;-69
2023/04/02 11:47:28;;;;;;;19.55;9.00;;;;;;;;;;4999386;28;20050;-69
2023/04/02 11:49:54;;;;;;;20.23;8.80;;;;;;;;;;5004236;28;20483;-69
2023/04/02 11:52:45;;;;;;;21.05;10.13;;;;;;;;;;5004633;28;20038;-69
2023/04/02 11:55:23;;;;;;;15.32;7.53;;;;;;;;;;4982345;28;20030;-69
2023/04/02 11:57:53;;;;;;;20.08;8.65;;;;;;;;;;4986434;28;20046;-69
2023/04/02 12:00:41;;;;;;;18.23;9.10;;;;;;;;;;4987369;28;20056;-69
2023/04/02 12:03:24;;;;;;;16.25;8.45;;;;;;;;;;4998569;28;20049;-70
2023/04/02 12:06:17;;;;;;;8.50;5.00;;;;;;;;;;4995792;28;20049;-69
2023/04/02 12:09:03;;;;;;;13.40;5.45;;;;;;;;;;5007626;28;20026;-69
2023/04/02 12:11:47;;;;;;;11.23;5.90;;;;;;;;;;5004877;28;20042;-69
2023/04/02 12:14:31;;;;;;;;;;;;;;;;;;5005829;28;20038;-69
2023/04/02 12:16:56;;;;;;;10.70;5.05;;;;;;;;;;5004508;28;19935;-69
2023/04/02 12:19:23;;;;;;;9.50;5.47;;;;;;;;;;5005898;28;20608;-70
2023/04/02 12:21:54;;;;;;;8.85;4.88;;;;;;;;;;5006041;28;20022;-70
2023/04/02 12:24:22;;;;;;;8.05;4.43;;;;;;;;;;5003940;28;20562;-69
2023/04/02 12:26:47;;;;;;;9.13;4.47;;;;;;;;;;5003807;28;20033;-69
2023/04/02 12:29:34;;;;;;;12.15;4.80;;;;;;;;;;4990075;28;20046;-70
2023/04/02 12:31:59;;;;;;;11.02;4.90;;;;;;;;;;5001975;28;20472;-70
2023/04/02 12:34:27;;;;;;;8.93;4.35;;;;;;;;;;5005306;28;20037;-70
2023/04/02 12:37:01;;;;;;;6.95;3.05;;;;;;;;;;5005652;28;20033;-70
2023/04/02 12:39:28;;;;;;;9.07;5.07;;;;;;;;;;5004358;28;20033;-70
2023/04/02 12:41:53;;;;;;;12.52;5.60;;;;;;;;;;5004149;28;20049;-70
2023/04/02 12:44:22;;;;;;;9.65;4.88;;;;;;;;;;4998847;28;20038;-69
2023/04/02 12:46:48;;;;;;;8.20;4.82;;;;;;;;;;4995417;28;20029;-69
2023/04/02 12:49:37;;;;;;;11.88;5.90;;;;;;;;;;4998607;28;20034;-69
2023/04/02 12:52:05;;;;;;;13.65;6.50;;;;;;;;;;4986649;28;20074;-69
2023/04/02 12:54:35;;;;;;;14.63;7.13;;;;;;;;;;4996654;28;20041;-69
2023/04/02 12:57:28;;;;;;;12.73;6.65;;;;;;;;;;4997725;28;20038;-69
2023/04/02 12:59:55;;;;;;;13.73;6.57;;;;;;;;;;4997867;28;20037;-69
2023/04/02 13:02:21;;;;;;;13.02;7.45;;;;;;;;;;4999739;28;20091;-69
2023/04/02 13:04:51;;;;;;;17.30;7.03;;;;;;;;;;4998091;28;20045;-70
2023/04/02 13:07:18;;;;;;;17.45;7.30;;;;;;;;;;5001599;28;20128;-69
2023/04/02 13:09:46;;;;;;;12.68;5.97;;;;;;;;;;4999023;28;20034;-69
2023/04/02 13:12:38;;;;;;;11.68;6.03;;;;;;;;;;4999205;28;20061;-69
2023/04/02 13:15:06;;;;;;;11.20;5.38;;;;;;;;;;4998995;28;20034;-69
2023/04/02 13:17:38;;;;;;;8.80;4.07;;;;;;;;;;5001684;28;20194;-70
2023/04/02 13:20:41;;;;;;;10.77;5.13;;;;;;;;;;5001617;28;20068;-69
2023/04/02 13:23:42;;;;;;;9.15;4.25;;;;;;;;;;4999757;28;20038;-69
2023/04/02 13:26:17;;;;;;;8.98;4.85;;;;;;;;;;4931339;28;20047;-69
2023/04/02 13:28:55;;;;;;;9.68;4.57;;;;;;;;;;4992411;28;20533;-69
2023/04/02 13:31:21;;;;;;;9.25;4.97;;;;;;;;;;5000005;28;20041;-69
2023/04/02 13:33:46;;;;;;;10.63;5.65;;;;;;;;;;4998856;28;20441;-69
2023/04/02 13:36:14;;;;;;;12.07;5.28;;;;;;;;;;4999535;28;20057;-69
2023/04/02 13:38:40;;;;;;;8.80;4.53;;;;;;;;;;5001482;28;20137;-69
2023/04/02 13:41:19;;;;;;;10.75;5.88;;;;;;;;;;4999822;28;20129;-70
2023/04/02 13:43:45;;;;;;;12.15;5.60;;;;;;;;;;5001241;28;20042;-69
2023/04/02 13:46:18;;;;;;;10.48;6.45;;;;;;;;;;5000034;28;20370;-69
2023/04/02 13:48:43;;;;;;;9.95;5.50;;;;;;;;;;5000185;28;20042;-69
2023/04/02 13:51:15;;;;;;;13.98;5.00;;;;;;;;;;4999895;28;20193;-69
2023/04/02 13:53:41;;;;;;;8.88;5.47;;;;;;;;;;4998862;28;20065;-69
2023/04/02 13:56:07;;;;;;;9.95;5.50;;;;;;;;;;5001197;28;20050;-69
2023/04/02 13:58:32;;;;;;;11.35;5.25;;;;;;;;;;5001498;28;20038;-69
2023/04/02 14:00:58;;;;;;;8.63;4.57;;;;;;;;;;4996809;28;20036;-69
2023/04/02 14:03:23;;;;;;;11.15;5.07;;;;;;;;;;4991179;28;20038;-69
2023/04/02 14:06:14;;;;;;;9.48;4.60;;;;;;;;;;4996679;28;20077;-69
2023/04/02 14:08:45;;;;;;;10.50;4.78;;;;;;;;;;4984499;28;20043;-69
2023/04/02 14:11:35;;;;;;;9.18;4.50;;;;;;;;;;4989790;28;20050;-69
2023/04/02 14:14:12;;;;;;;8.77;4.90;;;;;;;;;;4998048;28;20117;-69
2023/04/02 14:17:02;;;;;;;8.85;5.00;;;;;;;;;;4992182;28;20589;-69
2023/04/02 14:19:55;;;;;;;6.25;3.65;;;;;;;;;;4995750;28;20091;-69
2023/04/02 14:22:43;;;;;;;10.05;4.78;;;;;;;;;;4999975;28;20120;-69
2023/04/02 14:25:24;;;;;;;9.18;4.97;;;;;;;;;;4986560;28;20068;-69
2023/04/02 14:28:22;;;;;;;8.10;4.57;;;;;;;;;;4999056;28;20050;-69
2023/04/02 14:31:07;;;;;;;9.20;5.10;;;;;;;;;;4993079;28;20144;-69
2023/04/02 14:34:00;;;;;;;11.73;4.85;;;;;;;;;;4995871;28;20034;-69
2023/04/02 14:36:34;;;;;;;10.40;4.68;;;;;;;;;;4998962;28;20046;-69
2023/04/02 14:39:15;;;;;;;12.80;6.95;;;;;;;;;;4997601;28;20034;-69
2023/04/02 14:42:15;;;;;;;16.13;6.18;;;;;;;;;;4994330;28;20096;-69
2023/04/02 14:44:47;;;;;;;9.35;4.22;;;;;;;;;;4999871;28;20083;-69
2023/04/02 14:47:15;;;;;;;8.40;4.88;;;;;;;;;;4999781;28;20048;-69
2023/04/02 14:49:44;;;;;;;7.43;4.70;;;;;;;;;;4996934;28;20065;-69
2023/04/02 14:52:14;;;;;;;9.23;4.63;;;;;;;;;;4994513;28;20025;-69
2023/04/02 14:54:49;;;;;;;7.20;4.50;;;;;;;;;;4996343;28;20053;-69
2023/04/02 14:57:20;;;;;;;8.00;4.47;;;;;;;;;;4997404;28;20885;-69
2023/04/02 14:59:45;;;;;;;7.22;4.70;;;;;;;;;;4999537;28;20751;-69
2023/04/02 15:02:28;;;;;;;8.75;3.92;;;;;;;;;;4998499;28;20042;-69
2023/04/02 15:05:03;;;;;;;9.13;4.43;;;;;;;;;;4999298;28;20092;-69
2023/04/02 15:07:37;;;;;;;9.70;5.30;;;;;;;;;;4997179;28;20273;-69
2023/04/02 15:10:10;;;;;;;5.88;3.40;;;;;;;;;;4998810;28;20044;-69
2023/04/02 15:12:39;;;;;;;10.15;4.05;;;;;;;;;;4990801;28;20992;-69